Tiempo atmosférico en la estación meteorológica de Zumaia, Gipuzkoa (28 m.)



Fecha
DESCASC
Temp. máxima en grados centígrados (hora)
DESCASC
Temp. mínima en grados centígrados (hora)
DESCASC
Temp. media en grados centígrados
DESCASC
Racha de viento máxima en m/sg (hora)
DESCASC
Velocidad máxima media en intervalos de 10 minutos(hora)
DESCASC
Precipitaciones diarias en mm
DESCASC
Precipitaciones de 00:00 a 06:00 en mm
DESCASC
Precipitaciones de 06:00 a 12:00 en mm
DESCASC
Precipitaciones de 12:00 a 18:00 en mm
DESCASC
Precipitaciones de 18:00 a 24:00 en mm
DESCASC
23-06-2019 26.9 (05:50) 18.7 (23:50) 22.8 14.17 (08:30) 6.94 (05:00) 0 0 0 0 0
22-06-2019 26.1 (17:10) 11.4 (06:20) 18.8 8.06 (14:20) 5.83 (12:40) 0 0 0 0 0
21-06-2019 22.5 (18:00) 14.2 (06:40) 18.3 10 (00:20) 7.5 (00:20) 15.6 3.2 12.4 0 0
20-06-2019 21.3 (14:50) 16.2 (00:00) 18.8 10.56 (23:59) 6.11 (00:20) 0.1 0 0.1 0 0
19-06-2019 23.9 (16:30) 14.4 (00:00) 19.1 8.61 (11:30) 5 (12:20) 0 0 0 0 0
18-06-2019 29.8 (17:10) 16 (00:00) 22.9 16.11 (17:30) 10.28 (17:40) 0 0 0 0 0
17-06-2019 22.3 (16:10) 13.5 (00:00) 17.9 11.67 (21:00) 8.61 (21:30) 0 0 0 0 0
16-06-2019 23.1 (17:40) 11 (00:00) 17.1 7.22 (23:50) 4.72 (12:20) 0 0 0 0 0
15-06-2019 21.2 (17:30) 11.9 (00:00) 16.6 5 (13:30) 3.61 (13:30) 0.1 0.1 0 0 0
14-06-2019 18.1 (13:20) 12.3 (00:00) 15.2 8.61 (19:30) 7.22 (19:40) 0.2 0.1 0 0 0.1
13-06-2019 18.7 (15:00) 9.9 (00:00) 14.3 8.33 (22:30) 5 (21:10) 0.1 0 0 0 0.1
12-06-2019 20.2 (14:10) 12.2 (00:00) 16.2 12.78 (14:50) 9.72 (15:10) 0 0 0 0 0
11-06-2019 17.9 (17:00) 11.2 (00:00) 14.5 17.5 (15:20) 11.39 (17:30) 11.6 5.5 3 3.1 0
10-06-2019 20.1 (12:20) 13.2 (00:00) 16.7 10.56 (01:20) 7.5 (01:20) 0.4 0 0 0 0.4
09-06-2019 23.2 (12:30) 14.6 (00:00) 18.9 11.39 (15:30) 8.33 (20:50) 0 0 0 0 0
08-06-2019 19.7 (16:20) 9.8 (00:00) 14.8 7.78 (13:30) 5.28 (13:50) 0 0 0 0 0
07-06-2019 23.4 (00:10) 13.4 (00:00) 18.4 18.33 (14:00) 13.61 (14:00) 0.4 0.4 0 0 0
06-06-2019 27.2 (17:10) 10.9 (00:00) 19.1 17.5 (17:50) 8.06 (23:50) 0 0 0 0 0
05-06-2019 18.6 (19:30) 12.4 (00:00) 15.5 16.67 (15:20) 11.94 (16:00) 18.1 1.1 15.2 1.8 0
04-06-2019 24.7 (14:20) 15.2 (00:00) 20 17.5 (18:10) 11.94 (18:00) 0.1 0 0 0 0.1
03-06-2019 23.2 (16:30) 14.2 (00:00) 18.7 6.11 (09:10) 3.33 (13:00) 0 0 0 0 0
02-06-2019 24.5 (14:50) 15.8 (00:00) 20.2 6.39 (18:10) 5 (11:40) 0 0 0 0 0
01-06-2019 31.8 (13:10) 15.3 (00:00) 23.5 11.94 (10:30) 6.11 (10:50) 0 0 0 0 0
31-05-2019 24 (17:00) 12.9 (00:00) 18.4 7.78 (11:00) 3.89 (12:50) 0 0 0 0 0
30-05-2019 21.1 (18:50) 9.6 (00:00) 15.4 7.22 (13:20) 5.56 (13:20) 0 0 0 0 0
29-05-2019 21.1 (13:50) 12.6 (00:00) 16.9 12.22 (00:40) 8.06 (00:30) 1.1 1.1 0 0 0
28-05-2019 18.6 (17:30) 13.5 (00:00) 16.1 16.94 (13:00) 12.22 (13:10) 1.2 0 0.1 0.5 0.6

Gráficas

Temp. máximas Temp. mínimas Temp. medias Precipitaciones Rachas de viento máximas Velocidades máximas media en intervalos de 10 minutos

Datos horarios

Fecha y hora oficial Temperatura (ºC) Velocidad del viento (km/h) Dirección del viento Racha (km/h) Dirección de racha Precipitación (mm) Presión (hPa) Tendencia (hPa) Humedad (%)
2019-06-26 23:00:00 20.8 42 Noroeste 57 Noroeste 0 -- -- 94
2019-06-26 22:00:00 21.2 22 Noroeste 40 Noroeste 0 -- -- 88
2019-06-26 21:00:00 26.4 0 Calma 17 Noroeste 0 -- -- 74
2019-06-26 20:00:00 27.2 10 Noroeste 17 Noroeste 0 -- -- 71
2019-06-26 19:00:00 28 12 Noroeste 15 Noroeste 0 -- -- 71
2019-06-26 18:00:00 29.3 9 Noroeste 22 Noroeste 0 -- -- 70
2019-06-26 17:00:00 27.6 11 Noroeste 19 Noroeste 0 -- -- 72
2019-06-26 16:00:00 27.2 15 Noroeste 27 Noroeste 0 -- -- 73
2019-06-26 15:00:00 26 10 Noroeste 26 Nordeste 0 -- -- 74
2019-06-26 14:00:00 26.3 12 Nordeste 29 Noroeste 0 -- -- 77
2019-06-26 13:00:00 24.4 13 Noroeste 33 Norte 0 -- -- 77
2019-06-26 12:00:00 25.1 12 Nordeste 29 Este 0 -- -- 76
2019-06-26 11:00:00 23.5 14 Nordeste 26 Nordeste 0 -- -- 78
2019-06-26 10:00:00 22.6 9 Este 20 Este 0 -- -- 88
2019-06-26 09:00:00 19.9 11 Sudeste 19 Este 0 -- -- 95
2019-06-26 08:00:00 19.8 6 Sudeste 10 Este 0 -- -- 97
2019-06-26 07:00:00 19.4 4 Sudeste 6 Este 0 -- -- 97
2019-06-26 06:00:00 19.2 0 Calma 13 Noroeste 0 -- -- 97
2019-06-26 05:00:00 19.3 10 Noroeste 17 Noroeste 0 -- -- 97
2019-06-26 04:00:00 19.4 9 Noroeste 16 Oeste 0 -- -- 97
2019-06-26 03:00:00 19.5 10 Noroeste 23 Noroeste 0 -- -- 96
2019-06-26 02:00:00 19.4 17 Noroeste 24 Noroeste 0 -- -- 96
2019-06-26 01:00:00 19.4 14 Noroeste 19 Noroeste 0 -- -- 95
2019-06-26 00:00:00 19.6 10 Noroeste 21 Noroeste 0 -- -- 95
2019-06-25 23:00:00 19.8 6 Noroeste 15 Noroeste 0 -- -- 92
2019-06-25 22:00:00 20 8 Noroeste 15 Noroeste 0 -- -- 89
2019-06-25 21:00:00 20.3 8 Noroeste 14 Noroeste 0 -- -- 84
2019-06-25 20:00:00 23 9 Noroeste 14 Noroeste 0 -- -- 81
2019-06-25 19:00:00 21.7 12 Noroeste 15 Norte 0 -- -- 84
2019-06-25 18:00:00 21.6 13 Norte 18 Noroeste 0 -- -- 83
2019-06-25 17:00:00 22.6 10 Norte 15 Noroeste 0 -- -- 77
2019-06-25 16:00:00 24.1 9 Noroeste 14 Noroeste 0 -- -- 75
2019-06-25 15:00:00 23.9 9 Norte 19 Noroeste 0 -- -- 78
2019-06-25 14:00:00 23.3 12 Noroeste 19 Noroeste 0 -- -- 81
2019-06-25 13:00:00 22.7 6 Norte 11 Norte 0 -- -- 85
2019-06-25 12:00:00 20.6 8 Norte 18 Norte 0 -- -- 86
2019-06-25 11:00:00 22.2 8 Norte 13 Norte 0 -- -- 83
2019-06-25 10:00:00 20.9 8 Norte 14 Nordeste 0 -- -- 88
2019-06-25 09:00:00 19.2 0 Calma 12 Sur 0 -- -- 95
2019-06-25 08:00:00 17.2 8 Sur 14 Sur 0 -- -- 98
2019-06-25 07:00:00 16.3 12 Sur 17 Sur 0 -- -- 97
2019-06-25 06:00:00 16.6 10 Sur 17 Sur 0 -- -- 98
2019-06-25 05:00:00 16.5 10 Sur 15 Sur 0 -- -- 97
2019-06-25 04:00:00 17 11 Sur 15 Sur 0 -- -- 97
2019-06-25 03:00:00 17.1 7 Sur 13 Sur 0 -- -- 97
2019-06-25 02:00:00 17.4 8 Sur 11 Sur 0 -- -- 96
2019-06-25 01:00:00 17.8 7 Sudoeste 9 Sudoeste 0 -- -- 94
2019-06-25 00:00:00 18.5 6 Sur 12 Sur 0 -- -- 93
2019-06-24 23:00:00 19.1 4 Sur 21 Noroeste 0 -- -- 92
2019-06-24 22:00:00 19.2 19 Noroeste 34 Noroeste 0 -- -- 92
2019-06-24 21:00:00 19.5 26 Noroeste 45 Noroeste 0 -- -- 92
2019-06-24 20:00:00 19.9 31 Noroeste 49 Noroeste 0 -- -- 89
2019-06-24 19:00:00 20.6 24 Noroeste 36 Noroeste 0 -- -- 89
2019-06-24 18:00:00 20 19 Noroeste 33 Noroeste 0 -- -- 89
2019-06-24 17:00:00 20.9 13 Noroeste 23 Noroeste 0 -- -- 87
2019-06-24 16:00:00 22.3 8 Norte 14 Nordeste 0 -- -- 84
2019-06-24 15:00:00 21.4 0 Calma 19 Nordeste 0 -- -- 83
2019-06-24 14:00:00 21.6 5 Nordeste 18 Nordeste 0 -- -- 82
2019-06-24 13:00:00 21.5 6 Nordeste 13 Noroeste 0 -- -- 81
2019-06-24 12:00:00 21.3 10 Noroeste 12 Noroeste 0 -- -- 83
2019-06-24 11:00:00 21.7 2 Noroeste 10 Noroeste 0 -- -- 84
2019-06-24 10:00:00 20.3 7 Noroeste 14 Oeste 0 -- -- 88
2019-06-24 09:00:00 19.2 4 Sur 11 Sur 0 -- -- 95
2019-06-24 08:00:00 17.8 8 Sur 14 Sur 0 -- -- 95
2019-06-24 07:00:00 17.7 6 Sur 18 Noroeste 0 -- -- 95
2019-06-24 06:00:00 18.2 10 Noroeste 27 Noroeste 0 -- -- 95
2019-06-24 05:00:00 18.4 14 Noroeste 30 Noroeste 0 -- -- 95
2019-06-24 04:00:00 18.2 9 Noroeste 24 Noroeste 0 -- -- 96
2019-06-24 03:00:00 18.2 5 Oeste 13 Noroeste 0 -- -- 95
2019-06-24 02:00:00 19 4 Sur 7 Sur 0 -- -- 96
2019-06-24 01:00:00 18.4 0 Calma 9 Noroeste 0 -- -- 94
2019-06-24 00:00:00 18.9 6 Noroeste 10 Noroeste 0 -- -- 92
2019-06-23 23:00:00 19.1 5 Noroeste 13 Noroeste 0 -- -- 89
2019-06-23 22:00:00 20.1 5 Noroeste 12 Noroeste 0 -- -- 86
2019-06-23 21:00:00 20.5 8 Noroeste 14 Noroeste 0 -- -- 84
2019-06-23 20:00:00 21.5 12 Noroeste 15 Noroeste 0 -- -- 78
2019-06-23 19:00:00 23.4 6 Noroeste 12 Noroeste 0 -- -- 73
2019-06-23 18:00:00 24.2 7 Noroeste 14 Noroeste 0 -- -- 71
2019-06-23 17:00:00 23.7 10 Noroeste 17 Noroeste 0 -- -- 72
2019-06-23 16:00:00 24.3 14 Noroeste 19 Nordeste 0 -- -- 69
2019-06-23 15:00:00 23.8 15 Nordeste 22 Nordeste 0 -- -- 67
2019-06-23 14:00:00 23.7 14 Nordeste 22 Norte 0 -- -- 70
2019-06-23 13:00:00 23 18 Nordeste 30 Nordeste 0 -- -- 69
2019-06-23 12:00:00 25.9 7 Nordeste 17 Nordeste 0 -- -- 66
2019-06-23 11:00:00 23.4 6 Nordeste 19 Nordeste 0 -- -- 69
2019-06-23 10:00:00 22.7 3 Sur 15 Nordeste 0 -- -- 75
2019-06-23 09:00:00 21.2 10 Noroeste 51 Noroeste 0 -- -- 75
2019-06-23 08:00:00 25.7 23 Sur 50 Sur 0 -- -- 51
2019-06-23 07:00:00 25.8 24 Sur 48 Sur 0 -- -- 50
2019-06-23 06:00:00 26.6 22 Sur 44 Sur 0 -- -- 47
2019-06-23 05:00:00 25.7 25 Sur 45 Sur 0 -- -- 51
2019-06-23 04:00:00 20.1 4 Noroeste 8 Sur 0 -- -- 95
2019-06-23 03:00:00 19.7 5 Sur 15 Sur 0 -- -- 95
2019-06-23 02:00:00 19.7 11 Sur 16 Sur 0 -- -- 94
2019-06-23 01:00:00 20 10 Sur 16 Sur 0 -- -- 94
2019-06-23 00:00:00 19.9 12 Sur 16 Sur 0 -- -- 91
2019-06-22 23:00:00 20.3 6 Sur 9 Sudoeste 0 -- -- 85
2019-06-22 22:00:00 21.7 4 Oeste 12 Noroeste 0 -- -- 75
2019-06-22 21:00:00 22.6 8 Oeste 19 Noroeste 0 -- -- 72
2019-06-22 20:00:00 23.9 9 Noroeste 18 Noroeste 0 -- -- 68
2019-06-22 19:00:00 25.1 9 Noroeste 18 Noroeste 0 -- -- 66
2019-06-22 18:00:00 23 10 Noroeste 20 Nordeste 0 -- -- 70
2019-06-22 17:00:00 25.3 6 Nordeste 22 Nordeste 0 -- -- 64
2019-06-22 16:00:00 24.9 13 Nordeste 27 Nordeste 0 -- -- 64
2019-06-22 15:00:00 24.4 12 Nordeste 29 Nordeste 0 -- -- 66
2019-06-22 14:00:00 22.8 14 Nordeste 26 Nordeste 0 -- -- 67
2019-06-22 13:00:00 20.8 16 Nordeste 27 Nordeste 0 -- -- 70
2019-06-22 12:00:00 20.5 17 Nordeste 24 Nordeste 0 -- -- 70
2019-06-22 11:00:00 19.4 15 Nordeste 21 Nordeste 0 -- -- 73
2019-06-22 10:00:00 17.8 0 Calma 12 Sur 0 -- -- 83
2019-06-22 09:00:00 14.4 9 Sur 17 Sur 0 -- -- 97
2019-06-22 08:00:00 12.5 12 Sur 18 Sur 0 -- -- 98
2019-06-22 07:00:00 12.2 12 Sur 19 Sur 0 -- -- 98
2019-06-22 06:00:00 11.9 11 Sur 18 Sur 0 -- -- 97
2019-06-22 05:00:00 11.7 12 Sur 18 Sudeste 0 -- -- 97
2019-06-22 04:00:00 12.1 10 Sur 16 Sur 0 -- -- 97
2019-06-22 03:00:00 12.7 10 Sur 17 Sur 0 -- -- 96
2019-06-22 02:00:00 13.2 9 Sur 14 Sur 0 -- -- 95
2019-06-22 01:00:00 14.1 8 Sur 14 Sur 0 -- -- 94
2019-06-22 00:00:00 14.3 10 Sur 12 Sur 0 -- -- 90
2019-06-21 23:00:00 15.3 6 Sur 9 Sur 0 -- -- 82
2019-06-21 22:00:00 17.5 3 Norte 12 Norte 0 -- -- 70
2019-06-21 21:00:00 19.8 8 Norte 14 Noroeste 0 -- -- 68
2019-06-21 20:00:00 21.1 11 Noroeste 16 Noroeste 0 -- -- 65
2019-06-21 19:00:00 20.6 12 Noroeste 19 Noroeste 0 -- -- 66
2019-06-21 18:00:00 22.2 12 Noroeste 19 Noroeste 0 -- -- 66
2019-06-21 17:00:00 21.9 9 Norte 13 Norte 0 -- -- 66
2019-06-21 16:00:00 21.6 7 Norte 15 Norte 0 -- -- 68
2019-06-21 15:00:00 20.1 9 Norte 16 Norte 0 -- -- 71
2019-06-21 14:00:00 20.1 9 Norte 15 Noroeste 0 -- -- 70
2019-06-21 13:00:00 20.2 9 Noroeste 14 Noroeste 0 -- -- 76
2019-06-21 12:00:00 18.2 6 Noroeste 13 Noroeste 0 -- -- 90
2019-06-21 11:00:00 16.8 5 Sur 9 Sur 1 -- -- 99
2019-06-21 10:00:00 15.4 4 Sur 9 Sudeste 0.6 -- -- 99
2019-06-21 09:00:00 14.7 6 Sur 13 Sudeste 4.3 -- -- 99
2019-06-21 08:00:00 14.9 9 Sudeste 14 Noroeste 4.5 -- -- 98
2019-06-21 07:00:00 -- 0 Calma 18 Noroeste 2 -- -- --
2019-06-21 06:00:00 14.9 10 Noroeste 16 Noroeste 0.7 -- -- 97
2019-06-21 05:00:00 15 4 Norte 8 Noroeste 0.2 -- -- 96
2019-06-21 04:00:00 15 0 Calma 6 Noroeste 1.1 -- -- 95
2019-06-21 03:00:00 15.2 2 Nordeste 22 Nordeste 0.8 -- -- 93
2019-06-21 02:00:00 16.1 15 Nordeste 27 Norte 0.3 -- -- 92
2019-06-21 01:00:00 16.7 21 Norte 36 Norte 0.1 -- -- 89
2019-06-21 00:00:00 17.2 21 Norte 38 Norte 0 -- -- 89
2019-06-20 23:00:00 17.7 18 Norte 27 Nordeste 0 -- -- 87
2019-06-20 22:00:00 17.7 20 Nordeste 24 Norte 0 -- -- 88
2019-06-20 21:00:00 18.1 9 Norte 18 Nordeste 0 -- -- 82
2019-06-20 20:00:00 18.5 9 Norte 17 Norte 0 -- -- 80
2019-06-20 19:00:00 19 12 Norte 19 Nordeste 0 -- -- 79
2019-06-20 18:00:00 19.3 10 Norte 14 Nordeste 0 -- -- 77
2019-06-20 17:00:00 19.4 9 Norte 15 Nordeste 0 -- -- 77
2019-06-20 16:00:00 20.4 8 Norte 13 Norte 0 -- -- 76
2019-06-20 15:00:00 20.3 10 Noroeste 13 Noroeste 0 -- -- 77
2019-06-20 14:00:00 19.7 9 Norte 12 Noroeste 0 -- -- 79
2019-06-20 13:00:00 19.6 6 Noroeste 10 Noroeste 0 -- -- 83
2019-06-20 12:00:00 19 6 Noroeste 9 Noroeste 0 -- -- 87
2019-06-20 11:00:00 17.3 0 Calma 11 Oeste 0 -- -- 92
2019-06-20 10:00:00 16.3 6 Oeste 15 Noroeste 0 -- -- 94
2019-06-20 09:00:00 16.7 6 Oeste 19 Noroeste 0.1 -- -- 94
2019-06-20 08:00:00 16.8 13 Noroeste 18 Nordeste 0 -- -- 94
2019-06-20 07:00:00 17.1 14 Nordeste 21 Norte 0 -- -- 93
2019-06-20 06:00:00 17.3 12 Noroeste 20 Noroeste 0 -- -- 92
2019-06-20 05:00:00 17.3 15 Noroeste 22 Noroeste 0 -- -- 92
2019-06-20 04:00:00 17.3 15 Noroeste 24 Noroeste 0 -- -- 92
2019-06-20 03:00:00 17.8 16 Noroeste 31 Noroeste 0 -- -- 91
2019-06-20 02:00:00 18 20 Noroeste 29 Noroeste 0 -- -- 89
2019-06-20 01:00:00 18.2 16 Noroeste 30 Noroeste 0 -- -- 86
2019-06-20 00:00:00 18.6 5 Noroeste 7 Noroeste 0 -- -- 83
2019-06-19 23:00:00 18.6 0 Calma 8 Nordeste 0 -- -- 79
2019-06-19 22:00:00 18.9 5 Nordeste 11 Nordeste 0 -- -- 76
2019-06-19 21:00:00 19.3 6 Nordeste 10 Nordeste 0 -- -- 73
2019-06-19 20:00:00 19.8 6 Nordeste 16 Nordeste 0 -- -- 72
2019-06-19 19:00:00 20.5 10 Nordeste 18 Nordeste 0 -- -- 69
2019-06-19 18:00:00 21.9 14 Nordeste 22 Nordeste 0 -- -- 67
2019-06-19 17:00:00 22.2 9 Norte 17 Norte 0 -- -- 68
2019-06-19 16:00:00 23.7 8 Noroeste 14 Noroeste 0 -- -- 71
2019-06-19 15:00:00 21.9 4 Noroeste 18 Noroeste 0 -- -- 73
2019-06-19 14:00:00 20.9 13 Noroeste 23 Noroeste 0 -- -- 81
2019-06-19 13:00:00 20.1 12 Noroeste 24 Noroeste 0 -- -- 79
2019-06-19 12:00:00 21.2 17 Norte 31 Nordeste 0 -- -- 68
2019-06-19 11:00:00 22.5 16 Nordeste 25 Norte 0 -- -- 66
2019-06-19 10:00:00 19.1 4 Nordeste 10 Nordeste 0 -- -- 87
2019-06-19 09:00:00 16.9 0 Calma 7 Sudoeste 0 -- -- 97
2019-06-19 08:00:00 15.2 6 Sur 15 Sur 0 -- -- 98
2019-06-19 07:00:00 14.5 8 Sur 13 Sur 0 -- -- 98
2019-06-19 06:00:00 14.7 7 Sur 11 Sur 0 -- -- 98
2019-06-19 05:00:00 14.8 4 Sudoeste 8 Sur 0 -- -- 98
2019-06-19 04:00:00 15 4 Sur 12 Sur 0 -- -- 97
2019-06-19 03:00:00 15.1 9 Sur 13 Sur 0 -- -- 96
2019-06-19 02:00:00 15.5 4 Sur 9 Sudeste 0 -- -- 96
2019-06-19 01:00:00 15.9 3 Sudoeste 7 Sudeste 0 -- -- 95
2019-06-19 00:00:00 16.2 5 Sur 7 Sur 0 -- -- 92
2019-06-18 23:00:00 16.9 4 Nordeste 18 Sur 0 -- -- 91
2019-06-18 22:00:00 17.5 13 Sur 25 Noroeste 0 -- -- 88
2019-06-18 21:00:00 18.5 14 Noroeste 37 Noroeste 0 -- -- 86
2019-06-18 20:00:00 19.1 26 Noroeste 48 Noroeste 0 -- -- 84
2019-06-18 19:00:00 19.8 35 Noroeste 54 Noroeste 0 -- -- 87
2019-06-18 18:00:00 20.4 29 Noroeste 58 Noroeste 0 -- -- 78
2019-06-18 17:00:00 29.2 19 Este 30 Este 0 -- -- 46
2019-06-18 16:00:00 28.4 16 Nordeste 31 Nordeste 0 -- -- 50
2019-06-18 15:00:00 27.3 17 Nordeste 29 Nordeste 0 -- -- 52
2019-06-18 14:00:00 25.9 15 Nordeste 29 Norte 0 -- -- 56
2019-06-18 13:00:00 21.2 18 Nordeste 23 Nordeste 0 -- -- 84
2019-06-18 12:00:00 20.4 8 Norte 16 Norte 0 -- -- 87
2019-06-18 11:00:00 20.3 7 Noroeste 14 Noroeste 0 -- -- 83
2019-06-18 10:00:00 19.6 9 Noroeste 13 Noroeste 0 -- -- 89
2019-06-18 09:00:00 18 0 Calma 6 Norte 0 -- -- 95
2019-06-18 08:00:00 16.8 0 Calma 13 Sur 0 -- -- 96
2019-06-18 07:00:00 16 3 Sur 16 Sudoeste 0 -- -- 96
2019-06-18 06:00:00 16.5 6 Sur 17 Sur 0 -- -- 95
2019-06-18 05:00:00 16.7 10 Sur 17 Sur 0 -- -- 94
2019-06-18 04:00:00 17.1 6 Sur 12 Sur 0 -- -- 93
2019-06-18 03:00:00 17.4 0 Calma 8 Sudeste 0 -- -- 93
2019-06-18 02:00:00 17.3 0 Calma 19 Noroeste 0 -- -- 93
2019-06-18 01:00:00 17.3 10 Noroeste 23 Noroeste 0 -- -- 93
2019-06-18 00:00:00 17.4 0 Calma 19 Noroeste 0 -- -- 93
2019-06-17 23:00:00 17.4 8 Noroeste 34 Noroeste 0 -- -- 93
2019-06-17 22:00:00 17.4 27 Noroeste 42 Noroeste 0 -- -- 93
2019-06-17 21:00:00 17.6 29 Noroeste 42 Noroeste 0 -- -- 93
2019-06-17 20:00:00 18.3 26 Noroeste 37 Noroeste 0 -- -- 91
2019-06-17 19:00:00 20.6 13 Noroeste 19 Noroeste 0 -- -- 80
2019-06-17 18:00:00 20.8 5 Norte 19 Norte 0 -- -- 79
2019-06-17 17:00:00 21.3 13 Norte 30 Nordeste 0 -- -- 79
2019-06-17 16:00:00 21.9 17 Nordeste 30 Nordeste 0 -- -- 76
2019-06-17 15:00:00 21.2 16 Nordeste 24 Nordeste 0 -- -- 78
2019-06-17 14:00:00 20 17 Nordeste 25 Nordeste 0 -- -- 79
2019-06-17 13:00:00 19.9 18 Nordeste 28 Nordeste 0 -- -- 79
2019-06-17 12:00:00 20.1 18 Nordeste 27 Nordeste 0 -- -- 80
2019-06-17 11:00:00 19.4 15 Nordeste 21 Nordeste 0 -- -- 83
2019-06-17 10:00:00 18.5 11 Nordeste 14 Nordeste 0 -- -- 89
2019-06-17 09:00:00 16.5 0 Calma 8 Sur 0 -- -- 98
2019-06-17 08:00:00 14.8 3 Sur 9 Sur 0 -- -- 98
2019-06-17 07:00:00 13.7 2 Sur 9 Sur 0 -- -- 98
2019-06-17 06:00:00 13.7 6 Sur 12 Sur 0 -- -- 98
2019-06-17 05:00:00 13.9 8 Sur 10 Sur 0 -- -- 97
2019-06-17 04:00:00 14.5 7 Sur 11 Sur 0 -- -- 96
2019-06-17 03:00:00 14.9 6 Sur 11 Sur 0 -- -- 95
2019-06-17 02:00:00 15.5 6 Sur 9 Sur 0 -- -- 93
2019-06-17 01:00:00 16.7 5 Noroeste 29 Noroeste 0 -- -- 93
2019-06-17 00:00:00 17.3 15 Noroeste 26 Noroeste 0 -- -- 92
2019-06-16 23:00:00 17.8 10 Noroeste 21 Noroeste 0 -- -- 90
2019-06-16 22:00:00 18.1 11 Noroeste 19 Noroeste 0 -- -- 85
2019-06-16 21:00:00 19.6 12 Noroeste 15 Oeste 0 -- -- 76
2019-06-16 20:00:00 20.1 8 Noroeste 18 Noroeste 0 -- -- 72
2019-06-16 19:00:00 21.8 5 Noroeste 14 Noroeste 0 -- -- 69
2019-06-16 18:00:00 22.7 8 Noroeste 12 Noroeste 0 -- -- 69
2019-06-16 17:00:00 21.9 5 Norte 19 Norte 0 -- -- 71
2019-06-16 16:00:00 21.4 8 Norte 15 Noroeste 0 -- -- 72
2019-06-16 15:00:00 20.9 9 Noroeste 17 Norte 0 -- -- 73
2019-06-16 14:00:00 20.1 12 Nordeste 23 Nordeste 0 -- -- 72
2019-06-16 13:00:00 18.9 17 Nordeste 22 Nordeste 0 -- -- 75
2019-06-16 12:00:00 18.3 17 Nordeste 21 Nordeste 0 -- -- 76
2019-06-16 11:00:00 18.1 15 Nordeste 22 Nordeste 0 -- -- 77
2019-06-16 10:00:00 16.8 13 Nordeste 21 Nordeste 0 -- -- 81
2019-06-16 09:00:00 14.6 5 Sur 14 Sudoeste 0 -- -- 94
2019-06-16 08:00:00 12.1 10 Sur 16 Sur 0 -- -- 95
2019-06-16 07:00:00 11.1 10 Sur 16 Sur 0 -- -- 95
2019-06-16 06:00:00 11.4 8 Sur 15 Sur 0 -- -- 96
2019-06-16 05:00:00 11.7 12 Sur 15 Sur 0 -- -- 95
2019-06-16 04:00:00 11.7 11 Sur 16 Sur 0 -- -- 95
2019-06-16 03:00:00 12 9 Sur 14 Sur 0 -- -- 94
2019-06-16 02:00:00 12.3 10 Sur 14 Sur 0 -- -- 93
2019-06-16 01:00:00 12.8 11 Sur 14 Sur 0 -- -- 90
2019-06-16 00:00:00 13.7 7 Sur 11 Sur 0 -- -- 86
2019-06-15 23:00:00 15 6 Sur 9 Sudoeste 0 -- -- 76
2019-06-15 22:00:00 16.8 3 Norte 14 Norte 0 -- -- 67
2019-06-15 21:00:00 19.5 4 Norte 11 Nordeste 0 -- -- 63
2019-06-15 20:00:00 20.3 6 Nordeste 12 Nordeste 0 -- -- 58
2019-06-15 19:00:00 20.9 8 Nordeste 13 Nordeste 0 -- -- 56
2019-06-15 18:00:00 20.7 9 Nordeste 14 Norte 0 -- -- 55
2019-06-15 17:00:00 20.6 10 Nordeste 14 Nordeste 0 -- -- 56
2019-06-15 16:00:00 20.3 10 Nordeste 15 Nordeste 0 -- -- 56
2019-06-15 15:00:00 20.2 10 Nordeste 15 Nordeste 0 -- -- 56
2019-06-15 14:00:00 20 10 Nordeste 18 Nordeste 0 -- -- 55
2019-06-15 13:00:00 20.8 9 Nordeste 15 Nordeste 0 -- -- 55
2019-06-15 12:00:00 19.3 8 Nordeste 13 Nordeste 0 -- -- 62
2019-06-15 11:00:00 18 3 Norte 10 Norte 0 -- -- 69
2019-06-15 10:00:00 17.8 0 Calma 10 Sur 0 -- -- 76
2019-06-15 09:00:00 14.5 3 Sur 14 Sur 0 -- -- 97
2019-06-15 08:00:00 12.9 5 Sur 13 Sur 0 -- -- 98
2019-06-15 07:00:00 12 8 Sur 14 Sur 0 -- -- 98
2019-06-15 06:00:00 12.4 8 Sur 14 Sur 0 -- -- 98
2019-06-15 05:00:00 12.9 8 Sur 12 Sur 0 -- -- 97
2019-06-15 04:00:00 13.1 8 Sur 13 Sudeste 0 -- -- 97
2019-06-15 03:00:00 13.4 3 Sudoeste 12 Sur 0 -- -- 97
2019-06-15 02:00:00 13.8 0 Calma 10 Sur 0 -- -- 97
2019-06-15 01:00:00 13.8 4 Sur 10 Sur 0.1 -- -- 96
2019-06-15 00:00:00 14 5 Sur 14 Sur 0 -- -- 96
2019-06-14 23:00:00 14 8 Sur 12 Sur 0 -- -- 96
2019-06-14 22:00:00 14.2 0 Calma 22 Noroeste 0.1 -- -- 95
2019-06-14 21:00:00 14.6 16 Noroeste 25 Noroeste 0 -- -- 95
2019-06-14 20:00:00 14.9 23 Norte 31 Noroeste 0 -- -- 95
2019-06-14 19:00:00 16.2 13 Noroeste 23 Noroeste 0 -- -- 88
2019-06-14 18:00:00 16 6 Noroeste 20 Noroeste 0 -- -- 89
2019-06-14 17:00:00 15.9 6 Oeste 18 Noroeste 0 -- -- 87
2019-06-14 16:00:00 16.5 5 Noroeste 15 Norte 0 -- -- 83
2019-06-14 15:00:00 16.9 0 Calma 12 Nordeste 0 -- -- 79
2019-06-14 14:00:00 17.4 5 Noroeste 13 Noroeste 0 -- -- 77
2019-06-14 13:00:00 17.9 5 Noroeste 12 Noroeste 0 -- -- 77
2019-06-14 12:00:00 17.4 4 Noroeste 10 Noroeste 0 -- -- 80
2019-06-14 11:00:00 16.7 5 Noroeste 9 Norte 0 -- -- 83
2019-06-14 10:00:00 15.7 3 Nordeste 7 Este 0 -- -- 94
2019-06-14 09:00:00 14.3 0 Calma 9 Sur 0 -- -- 98
2019-06-14 08:00:00 12.9 7 Sur 12 Sur 0 -- -- 98
2019-06-14 07:00:00 12.4 7 Sur 11 Sur 0 -- -- 98
2019-06-14 06:00:00 12.6 5 Sur 8 Sur 0 -- -- 97
2019-06-14 05:00:00 13.1 0 Calma 8 Sur 0 -- -- 96
2019-06-14 04:00:00 13.4 0 Calma 8 Sur 0 -- -- 96
2019-06-14 03:00:00 13.9 0 Calma 8 Sur 0 -- -- 96
2019-06-14 02:00:00 14 0 Calma 9 Sur 0 -- -- 95
2019-06-14 01:00:00 14.2 3 Sur 10 Sur 0.1 -- -- 93
2019-06-14 00:00:00 14.4 0 Calma 15 Oeste 0.1 -- -- 91
2019-06-13 23:00:00 14.7 5 Oeste 30 Noroeste 0 -- -- 86
2019-06-13 22:00:00 15.7 16 Noroeste 25 Noroeste 0 -- -- 82
2019-06-13 21:00:00 15.8 17 Noroeste 26 Noroeste 0 -- -- 82
2019-06-13 20:00:00 16 15 Noroeste 25 Noroeste 0 -- -- 81
2019-06-13 19:00:00 16.4 13 Noroeste 21 Noroeste 0 -- -- 81
2019-06-13 18:00:00 16.6 13 Noroeste 17 Noroeste 0 -- -- 78
2019-06-13 17:00:00 16.9 11 Norte 20 Noroeste 0 -- -- 76
2019-06-13 16:00:00 17 11 Norte 23 Norte 0 -- -- 74
2019-06-13 15:00:00 18.6 8 Nordeste 16 Norte 0 -- -- 71
2019-06-13 14:00:00 18.2 9 Nordeste 17 Nordeste 0 -- -- 72
2019-06-13 13:00:00 18.3 9 Nordeste 17 Norte 0 -- -- 72
2019-06-13 12:00:00 17.3 8 Norte 15 Norte 0 -- -- 75
2019-06-13 11:00:00 17.5 5 Norte 10 Noroeste 0 -- -- 77
2019-06-13 10:00:00 16.8 0 Calma 8 Noroeste 0 -- -- 80
2019-06-13 09:00:00 13.8 0 Calma 14 Sur 0 -- -- 93
2019-06-13 08:00:00 11.3 9 Sur 15 Sur 0 -- -- 97
2019-06-13 07:00:00 10.4 10 Sur 15 Sur 0 -- -- 97
2019-06-13 06:00:00 10.1 11 Sur 15 Sur 0 -- -- 97
2019-06-13 05:00:00 10.1 10 Sur 14 Sur 0 -- -- 96
2019-06-13 04:00:00 10.5 12 Sur 15 Sur 0 -- -- 96
2019-06-13 03:00:00 10.9 10 Sur 15 Sur 0 -- -- 95
2019-06-13 02:00:00 11.2 10 Sur 13 Sur 0 -- -- 94
2019-06-13 01:00:00 11.6 8 Sur 12 Sur 0 -- -- 93
2019-06-13 00:00:00 12.2 8 Sur 10 Sur 0 -- -- 91
2019-06-12 23:00:00 12.9 5 Sur 8 Sur 0 -- -- 86
2019-06-12 22:00:00 14 5 Sur 8 Noroeste 0 -- -- 77
2019-06-12 21:00:00 15.2 0 Calma 20 Noroeste 0 -- -- 73
2019-06-12 20:00:00 16.5 12 Noroeste 23 Noroeste 0 -- -- 71
2019-06-12 19:00:00 17.3 17 Noroeste 31 Noroeste 0 -- -- 68
2019-06-12 18:00:00 18.8 23 Noroeste 42 Noroeste 0 -- -- 64
2019-06-12 17:00:00 18.7 28 Noroeste 45 Noroeste 0 -- -- 64
2019-06-12 16:00:00 18.8 34 Noroeste 46 Noroeste 0 -- -- 62
2019-06-12 15:00:00 18.9 32 Noroeste 46 Noroeste 0 -- -- 62
2019-06-12 14:00:00 20 25 Noroeste 33 Noroeste 0 -- -- 59
2019-06-12 13:00:00 17 23 Noroeste 37 Noroeste 0 -- -- 59
2019-06-12 12:00:00 18.7 12 Noroeste 24 Oeste 0 -- -- 50
2019-06-12 11:00:00 15.9 3 Oeste 21 Oeste 0 -- -- 56
2019-06-12 10:00:00 14.9 5 Sudoeste 26 Sudoeste 0 -- -- 56
2019-06-12 09:00:00 14.9 9 Sudoeste 28 Sudoeste 0 -- -- 55
2019-06-12 08:00:00 14.2 9 Sudoeste 28 Sudoeste 0 -- -- 58
2019-06-12 07:00:00 13.8 9 Sudoeste 27 Sudoeste 0 -- -- 60
2019-06-12 06:00:00 13.7 11 Sudoeste 24 Sudoeste 0 -- -- 62
2019-06-12 05:00:00 13.4 4 Sur 20 Sudoeste 0 -- -- 63
2019-06-12 04:00:00 13.5 6 Sudoeste 29 Sudoeste 0 -- -- 63
2019-06-12 03:00:00 13.7 11 Sudoeste 30 Sudoeste 0 -- -- 66
2019-06-12 02:00:00 13.6 12 Sudoeste 24 Sudoeste 0 -- -- 68
2019-06-12 01:00:00 14 8 Sudoeste 24 Sudoeste 0 -- -- 67
2019-06-12 00:00:00 14.1 7 Sudoeste 23 Oeste 0 -- -- 69
2019-06-11 23:00:00 14.1 6 Sudoeste 24 Oeste 0 -- -- 70
2019-06-11 22:00:00 14.3 6 Oeste 23 Oeste 0 -- -- 72
2019-06-11 21:00:00 15.5 12 Noroeste 36 Noroeste 0 -- -- 68
2019-06-11 20:00:00 15.9 25 Noroeste 48 Noroeste 0 -- -- 69
2019-06-11 19:00:00 15.5 35 Noroeste 49 Noroeste 0 -- -- 75
2019-06-11 18:00:00 13.6 27 Noroeste 62 Noroeste 1.2 -- -- 86
2019-06-11 17:00:00 17.9 35 Noroeste 55 Noroeste 0 -- -- 69
2019-06-11 16:00:00 17.3 37 Noroeste 63 Noroeste 0 -- -- 73
2019-06-11 15:00:00 14.7 27 Noroeste 44 Noroeste 0.6 -- -- 79
2019-06-11 14:00:00 14.3 27 Noroeste 50 Noroeste 0.2 -- -- 82
2019-06-11 13:00:00 13.5 15 Noroeste 33 Noroeste 1.1 -- -- 86
2019-06-11 12:00:00 13 5 Oeste 40 Noroeste 1.3 -- -- 82
2019-06-11 11:00:00 13.5 19 Noroeste 44 Noroeste 0.1 -- -- 79
2019-06-11 10:00:00 12.8 9 Oeste 36 Noroeste 0.7 -- -- 80
2019-06-11 09:00:00 13.3 0 Calma 19 Oeste 0 -- -- 89
2019-06-11 08:00:00 12 4 Sur 11 Sur 0.2 -- -- 96
2019-06-11 07:00:00 11.8 4 Sur 21 Oeste 0.7 -- -- 93
2019-06-11 06:00:00 11.6 7 Oeste 35 Noroeste 0.2 -- -- 95
2019-06-11 05:00:00 11.8 14 Noroeste 31 Noroeste 0.2 -- -- 95
2019-06-11 04:00:00 12 6 Sur 17 Sur 1.1 -- -- 98
2019-06-11 03:00:00 12.2 0 Calma 16 Noroeste 2.5 -- -- 97
2019-06-11 02:00:00 12.6 0 Calma -- -- 0.9 -- -- 96
2019-06-11 01:00:00 13 0 Calma 5 Sudoeste 0.6 -- -- 95
2019-06-11 00:00:00 13.2 0 Calma 10 Sur 0.2 -- -- 92
2019-06-10 23:00:00 13.8 6 Sur 12 Noroeste 0.2 -- -- 83
2019-06-10 22:00:00 14.8 4 Oeste 16 Norte 0 -- -- 74
2019-06-10 21:00:00 15.3 10 Noroeste 19 Noroeste 0 -- -- 72
2019-06-10 20:00:00 15.5 10 Noroeste 18 Noroeste 0 -- -- 72
2019-06-10 19:00:00 15.8 9 Noroeste 17 Noroeste 0 -- -- 70
2019-06-10 18:00:00 17 14 Noroeste 21 Noroeste 0 -- -- 69
2019-06-10 17:00:00 17.7 15 Noroeste 21 Noroeste 0 -- -- 66
2019-06-10 16:00:00 17.9 17 Noroeste 24 Noroeste 0 -- -- 63
2019-06-10 15:00:00 19.1 17 Noroeste 26 Noroeste 0 -- -- 60
2019-06-10 14:00:00 18.1 19 Noroeste 27 Noroeste 0 -- -- 65
2019-06-10 13:00:00 19.1 16 Noroeste 23 Noroeste 0 -- -- 64
2019-06-10 12:00:00 18.9 12 Noroeste 22 Noroeste 0 -- -- 65
2019-06-10 11:00:00 18 15 Noroeste 22 Noroeste 0 -- -- 68
2019-06-10 10:00:00 16.4 13 Noroeste 25 Noroeste 0 -- -- 74
2019-06-10 09:00:00 15.9 16 Noroeste 26 Noroeste 0 -- -- 74
2019-06-10 08:00:00 14.9 19 Noroeste 27 Norte 0 -- -- 76
2019-06-10 07:00:00 14.1 19 Noroeste 24 Norte 0 -- -- 79
2019-06-10 06:00:00 14.1 19 Noroeste 26 Noroeste 0 -- -- 82
2019-06-10 05:00:00 14.2 23 Noroeste 29 Noroeste 0 -- -- 82
2019-06-10 04:00:00 14.3 18 Noroeste 28 Noroeste 0 -- -- 82
2019-06-10 03:00:00 14.6 19 Noroeste 31 Noroeste 0 -- -- 84
2019-06-10 02:00:00 14.2 20 Noroeste 38 Noroeste 0 -- -- 88
2019-06-10 01:00:00 14.7 20 Noroeste 32 Noroeste 0 -- -- 89
2019-06-10 00:00:00 14.9 20 Noroeste 28 Noroeste 0 -- -- 89
2019-06-09 23:00:00 14.9 17 Noroeste 31 Noroeste 0 -- -- 90
2019-06-09 22:00:00 15.2 23 Norte 34 Noroeste 0 -- -- 91
2019-06-09 21:00:00 15.4 30 Noroeste 36 Noroeste 0 -- -- 91
2019-06-09 20:00:00 15.6 30 Noroeste 36 Noroeste 0 -- -- 91
2019-06-09 19:00:00 15.8 28 Noroeste 35 Noroeste 0 -- -- 90
2019-06-09 18:00:00 16.5 26 Noroeste 33 Noroeste 0 -- -- 86
2019-06-09 17:00:00 17.6 22 Noroeste 39 Noroeste 0 -- -- 83
2019-06-09 16:00:00 17.1 27 Noroeste 41 Noroeste 0 -- -- 86
2019-06-09 15:00:00 18.4 26 Noroeste 37 Noroeste 0 -- -- 78
2019-06-09 14:00:00 20.8 25 Noroeste 35 Noroeste 0 -- -- 73
2019-06-09 13:00:00 22.5 19 Noroeste 27 Noroeste 0 -- -- 68
2019-06-09 12:00:00 21.5 9 Noroeste 14 Noroeste 0 -- -- 72
2019-06-09 11:00:00 20.8 9 Noroeste 14 Noroeste 0 -- -- 72
2019-06-09 10:00:00 18.5 8 Noroeste 15 Noroeste 0 -- -- 76
2019-06-09 09:00:00 17.2 8 Sur 13 Sur 0 -- -- 81
2019-06-09 08:00:00 15.1 4 Sur 11 Sur 0 -- -- 87
2019-06-09 07:00:00 14.7 3 Sur 9 Sur 0 -- -- 86
2019-06-09 06:00:00 15 4 Sudoeste 21 Noroeste 0 -- -- 85
2019-06-09 05:00:00 15.3 6 Oeste 26 Noroeste 0 -- -- 84
2019-06-09 04:00:00 15.4 6 Oeste 25 Oeste 0 -- -- 82
2019-06-09 03:00:00 15.7 9 Noroeste 25 Noroeste 0 -- -- 82
2019-06-09 02:00:00 15.9 6 Noroeste 20 Noroeste 0 -- -- 81
2019-06-09 01:00:00 15.9 9 Noroeste 19 Noroeste 0 -- -- 81
2019-06-09 00:00:00 16 8 Noroeste 16 Norte 0 -- -- 81
2019-06-08 23:00:00 16.2 7 Norte 15 Norte 0 -- -- 81
2019-06-08 22:00:00 16.4 7 Norte 16 Norte 0 -- -- 80
2019-06-08 21:00:00 16.7 10 Norte 19 Noroeste 0 -- -- 75
2019-06-08 20:00:00 17.6 8 Norte 16 Nordeste 0 -- -- 71
2019-06-08 19:00:00 19 7 Norte 15 Nordeste 0 -- -- 68
2019-06-08 18:00:00 17.6 12 Nordeste 21 Nordeste 0 -- -- 69
2019-06-08 17:00:00 18.6 15 Nordeste 21 Norte 0 -- -- 65
2019-06-08 16:00:00 19.4 15 Nordeste 23 Nordeste 0 -- -- 66
2019-06-08 15:00:00 18.8 15 Nordeste 26 Nordeste 0 -- -- 65
2019-06-08 14:00:00 18.6 18 Nordeste 28 Nordeste 0 -- -- 66
2019-06-08 13:00:00 18.1 18 Nordeste 23 Nordeste 0 -- -- 66
2019-06-08 12:00:00 18.5 15 Nordeste 21 Nordeste 0 -- -- 64
2019-06-08 11:00:00 18.9 8 Nordeste 18 Nordeste 0 -- -- 67
2019-06-08 10:00:00 17.4 0 Calma 7 Sur 0 -- -- 75
2019-06-08 09:00:00 13.7 2 Sur 14 Sur 0 -- -- 87
2019-06-08 08:00:00 11 12 Sur 15 Sur 0 -- -- 92
2019-06-08 07:00:00 9.9 13 Sur 15 Sur 0 -- -- 92
2019-06-08 06:00:00 9.9 12 Sur 16 Sur 0 -- -- 92
2019-06-08 05:00:00 10.3 12 Sur 16 Sur 0 -- -- 91
2019-06-08 04:00:00 10.9 9 Sur 14 Sur 0 -- -- 90
2019-06-08 03:00:00 11.2 8 Sur 13 Sur 0 -- -- 90
2019-06-08 02:00:00 11.7 8 Sur 13 Sur 0 -- -- 86
2019-06-08 01:00:00 12.5 10 Sur 13 Sur 0 -- -- 82
2019-06-08 00:00:00 13.4 8 Sur 11 Sur 0 -- -- 76
2019-06-07 23:00:00 14.2 0 Calma 18 Noroeste 0 -- -- 72
2019-06-07 22:00:00 15.2 14 Noroeste 27 Noroeste 0 -- -- 69
2019-06-07 21:00:00 16 16 Noroeste 32 Noroeste 0 -- -- 69
2019-06-07 20:00:00 16.5 23 Noroeste 40 Noroeste 0 -- -- 66
2019-06-07 19:00:00 17 31 Noroeste 51 Noroeste 0 -- -- 64
2019-06-07 18:00:00 17.3 33 Noroeste 54 Noroeste 0 -- -- 64
2019-06-07 17:00:00 17.7 41 Noroeste 65 Noroeste 0 -- -- 60
2019-06-07 16:00:00 17.4 42 Noroeste 63 Noroeste 0 -- -- 62
2019-06-07 15:00:00 17.2 45 Noroeste 65 Noroeste 0 -- -- 61
2019-06-07 14:00:00 18.6 49 Noroeste 66 Noroeste 0 -- -- 59
2019-06-07 13:00:00 17.8 40 Noroeste 55 Noroeste 0 -- -- 60
2019-06-07 12:00:00 19.4 33 Noroeste 47 Noroeste 0 -- -- 59
2019-06-07 11:00:00 19.8 2 Noroeste 36 Sur 0 -- -- 49
2019-06-07 10:00:00 19.1 16 Sudoeste 35 Sudoeste 0 -- -- 51
2019-06-07 09:00:00 17.1 12 Sudoeste 36 Sudoeste 0 -- -- 52
2019-06-07 08:00:00 16.1 15 Sudoeste 49 Sudoeste 0 -- -- 54
2019-06-07 07:00:00 14.8 23 Sudoeste 60 Sudoeste 0 -- -- 59
2019-06-07 06:00:00 14.7 24 Sur 62 Sudoeste 0 -- -- 60
2019-06-07 05:00:00 14.5 24 Sur 49 Sur 0.1 -- -- 63
2019-06-07 04:00:00 14.9 25 Sur 87 Sudoeste 0.3 -- -- 67
2019-06-07 03:00:00 16.9 16 Sudoeste 43 Sur 0 -- -- 59
2019-06-07 02:00:00 21 16 Sudoeste 41 Sur 0 -- -- 46
2019-06-07 01:00:00 22 17 Sur 50 Sur 0 -- -- 42
2019-06-07 00:00:00 22.9 20 Sur 56 Sur 0 -- -- 42
2019-06-06 23:00:00 24 19 Sur 35 Sur 0 -- -- 39
2019-06-06 22:00:00 24.4 13 Sur 27 Sur 0 -- -- 35
2019-06-06 21:00:00 24.8 11 Sur 32 Sur 0 -- -- 35
2019-06-06 20:00:00 25 15 Sur 47 Sur 0 -- -- 36
2019-06-06 19:00:00 25.2 21 Sur 58 Sudeste 0 -- -- 37
2019-06-06 18:00:00 25.7 24 Sur 63 Sudeste 0 -- -- 38
2019-06-06 17:00:00 26.2 21 Sur 46 Sudeste 0 -- -- 39
2019-06-06 16:00:00 24.4 9 Sudeste 32 Sudeste 0 -- -- 51
2019-06-06 15:00:00 21.7 17 Este 33 Nordeste 0 -- -- 64
2019-06-06 14:00:00 21.1 13 Este 30 Nordeste 0 -- -- 65
2019-06-06 13:00:00 18.7 21 Nordeste 30 Nordeste 0 -- -- 67
2019-06-06 12:00:00 18.3 17 Nordeste 25 Nordeste 0 -- -- 65
2019-06-06 11:00:00 18.3 14 Este 26 Este 0 -- -- 65
2019-06-06 10:00:00 17.2 3 Sur 13 Sur 0 -- -- 75
2019-06-06 09:00:00 13 9 Sur 14 Sur 0 -- -- 89
2019-06-06 08:00:00 11.5 8 Sur 13 Sur 0 -- -- 91
2019-06-06 07:00:00 11.1 5 Sur 15 Sur 0 -- -- 92
2019-06-06 06:00:00 11.1 9 Sur 16 Sur 0 -- -- 92
2019-06-06 05:00:00 11.4 0 Calma 11 Sur 0 -- -- 90
2019-06-06 04:00:00 11.8 0 Calma 13 Sur 0 -- -- 89
2019-06-06 03:00:00 12 6 Sur 12 Sur 0 -- -- 88
2019-06-06 02:00:00 12.2 0 Calma 12 Sur 0 -- -- 88
2019-06-06 01:00:00 12.5 5 Sur 15 Sur 0 -- -- 86
2019-06-06 00:00:00 12.9 3 Sur 12 Sur 0 -- -- 82
2019-06-05 23:00:00 14 5 Sur 20 Noroeste 0 -- -- 71
2019-06-05 22:00:00 14.8 13 Noroeste 41 Noroeste 0 -- -- 69
2019-06-05 21:00:00 15.6 29 Noroeste 44 Noroeste 0 -- -- 69
2019-06-05 20:00:00 16.1 26 Noroeste 40 Noroeste 0 -- -- 67
2019-06-05 19:00:00 17.8 29 Noroeste 50 Noroeste 0 -- -- 66
2019-06-05 18:00:00 17.9 34 Noroeste 55 Noroeste 0 -- -- 68
2019-06-05 17:00:00 17.8 35 Noroeste 54 Noroeste 0 -- -- 71
2019-06-05 16:00:00 15.9 43 Noroeste 60 Noroeste 0.1 -- -- 80
2019-06-05 15:00:00 15.4 32 Noroeste 57 Noroeste 0 -- -- 82
2019-06-05 14:00:00 14 8 Noroeste 41 Noroeste 1.6 -- -- 92
2019-06-05 13:00:00 14.9 17 Noroeste 45 Noroeste 0.1 -- -- 87
2019-06-05 12:00:00 13.3 3 Sudoeste 12 Sudoeste 0 -- -- 98
2019-06-05 11:00:00 13.5 0 Calma 11 Sur 0.6 -- -- 98
2019-06-05 10:00:00 12.7 0 Calma 14 Noroeste 3.3 -- -- 97
2019-06-05 09:00:00 12.7 8 Noroeste 37 Noroeste 6.2 -- -- 96
2019-06-05 08:00:00 13.4 18 Noroeste 33 Noroeste 1.5 -- -- 95
2019-06-05 07:00:00 13.4 6 Oeste 20 Oeste 3.6 -- -- 94
2019-06-05 06:00:00 13.8 7 Noroeste 30 Noroeste 0.8 -- -- 92
2019-06-05 05:00:00 14.4 4 Oeste 25 Noroeste 0 -- -- 88
2019-06-05 04:00:00 14.3 8 Noroeste 22 Noroeste 0.3 -- -- 90
2019-06-05 03:00:00 14.8 5 Oeste 23 Noroeste 0 -- -- 87
2019-06-05 02:00:00 15.3 11 Noroeste 29 Noroeste 0 -- -- 83
2019-06-05 01:00:00 15 3 Sur 11 Sur 0 -- -- 87
2019-06-05 00:00:00 15.2 8 Sur 14 Sur 0 -- -- 85
2019-06-04 23:00:00 16.1 2 Sur 17 Noroeste 0 -- -- 79
2019-06-04 22:00:00 16.4 15 Noroeste 33 Noroeste 0 -- -- 77
2019-06-04 21:00:00 16.4 21 Noroeste 40 Noroeste 0 -- -- 79
2019-06-04 20:00:00 16.8 18 Noroeste 53 Noroeste 0 -- -- 76
2019-06-04 19:00:00 15.9 28 Noroeste 63 Noroeste 0.1 -- -- 88
2019-06-04 18:00:00 17.7 43 Noroeste 61 Noroeste 0 -- -- 76
2019-06-04 17:00:00 20.9 4 Noroeste 16 Noroeste 0 -- -- 73
2019-06-04 16:00:00 21.2 9 Noroeste 23 Noroeste 0 -- -- 72
2019-06-04 15:00:00 21.8 19 Noroeste 27 Noroeste 0 -- -- 67
2019-06-04 14:00:00 24.4 11 Noroeste 27 Noroeste 0 -- -- 69
2019-06-04 13:00:00 22.1 21 Noroeste 29 Noroeste 0 -- -- 75
2019-06-04 12:00:00 22.6 14 Noroeste 23 Noroeste 0 -- -- 74
2019-06-04 11:00:00 21.4 14 Noroeste 22 Noroeste 0 -- -- 80
2019-06-04 10:00:00 20.4 10 Noroeste 20 Noroeste 0 -- -- 85
2019-06-04 09:00:00 18.4 0 Calma 12 Sur 0 -- -- 95
2019-06-04 08:00:00 17.2 0 Calma 11 Sur 0 -- -- 96
2019-06-04 07:00:00 16.6 0 Calma 7 Sudoeste 0 -- -- 96
2019-06-04 06:00:00 16.7 0 Calma 6 Sur 0 -- -- 95
2019-06-04 05:00:00 16.9 0 Calma -- -- 0 -- -- 93
2019-06-04 04:00:00 17.9 0 Calma -- -- 0 -- -- 92
2019-06-04 03:00:00 18.2 0 Calma -- -- 0 -- -- 90
2019-06-04 02:00:00 18.3 0 Calma 8 Sur 0 -- -- 89
2019-06-04 01:00:00 18.6 0 Calma 5 Noroeste 0 -- -- 89
2019-06-04 00:00:00 18.7 2 Noroeste 11 Noroeste 0 -- -- 88
2019-06-03 23:00:00 19 4 Norte 9 Noroeste 0 -- -- 84
2019-06-03 22:00:00 19.1 3 Noroeste 8 Noroeste 0 -- -- 83
2019-06-03 21:00:00 19.2 4 Norte 15 Noroeste 0 -- -- 79
2019-06-03 20:00:00 20.9 8 Norte 15 Nordeste 0 -- -- 72
2019-06-03 19:00:00 22.3 9 Norte 17 Nordeste 0 -- -- 66
2019-06-03 18:00:00 22.8 4 Norte 12 Nordeste 0 -- -- 68
2019-06-03 17:00:00 23 6 Nordeste 16 Nordeste 0 -- -- 66
2019-06-03 16:00:00 22.3 11 Nordeste 15 Norte 0 -- -- 65
2019-06-03 15:00:00 22.2 11 Nordeste 15 Nordeste 0 -- -- 68
2019-06-03 14:00:00 21.7 9 Norte 17 Norte 0 -- -- 69
2019-06-03 13:00:00 21.8 12 Nordeste 16 Nordeste 0 -- -- 73
2019-06-03 12:00:00 20.9 5 Norte 10 Nordeste 0 -- -- 77
2019-06-03 11:00:00 20.2 5 Noroeste 11 Noroeste 0 -- -- 79
2019-06-03 10:00:00 18.5 5 Noroeste 22 Oeste 0 -- -- 81
2019-06-03 09:00:00 17.4 0 Calma 14 Sur 0 -- -- 82
2019-06-03 08:00:00 14.9 9 Sur 15 Sur 0 -- -- 89
2019-06-03 07:00:00 14.3 7 Sur 14 Sur 0 -- -- 89
2019-06-03 06:00:00 14.4 10 Sur 13 Sur 0 -- -- 89
2019-06-03 05:00:00 14.6 7 Sur 12 Sur 0 -- -- 88
2019-06-03 04:00:00 15 5 Sur 9 Sur 0 -- -- 87
2019-06-03 03:00:00 15.4 0 Calma 10 Sudoeste 0 -- -- 87
2019-06-03 02:00:00 15.5 0 Calma 12 Sudoeste 0 -- -- 88
2019-06-03 01:00:00 15.8 8 Sur 13 Sur 0 -- -- 90
2019-06-03 00:00:00 16.7 7 Sur 11 Sur 0 -- -- 91
2019-06-02 23:00:00 17.8 2 Sur 18 Noroeste 0 -- -- 91
2019-06-02 22:00:00 18.3 8 Noroeste 17 Noroeste 0 -- -- 90
2019-06-02 21:00:00 19.2 6 Noroeste 23 Noroeste 0 -- -- 90
2019-06-02 20:00:00 20.4 8 Noroeste 19 Noroeste 0 -- -- 82
2019-06-02 19:00:00 21.6 0 Calma 23 Noroeste 0 -- -- 78
2019-06-02 18:00:00 23.6 15 Noroeste 21 Noroeste 0 -- -- 72
2019-06-02 17:00:00 23.9 11 Noroeste 18 Noroeste 0 -- -- 71
2019-06-02 16:00:00 23.4 10 Noroeste 14 Noroeste 0 -- -- 70
2019-06-02 15:00:00 24 10 Nordeste 16 Noroeste 0 -- -- 69
2019-06-02 14:00:00 22.3 8 Noroeste 14 Noroeste 0 -- -- 76
2019-06-02 13:00:00 22.4 10 Noroeste 19 Noroeste 0 -- -- 75
2019-06-02 12:00:00 22.2 10 Norte 22 Nordeste 0 -- -- 74
2019-06-02 11:00:00 22.3 14 Nordeste 21 Nordeste 0 -- -- 69
2019-06-02 10:00:00 22.9 0 Calma 12 Este 0 -- -- 66
2019-06-02 09:00:00 19.8 9 Sur 14 Sur 0 -- -- 80
2019-06-02 08:00:00 17.1 3 Sur 18 Sur 0 -- -- 88
2019-06-02 07:00:00 16 12 Sur 18 Sur 0 -- -- 92
2019-06-02 06:00:00 15.8 13 Sur 17 Sur 0 -- -- 92
2019-06-02 05:00:00 16.1 12 Sur 17 Sur 0 -- -- 92
2019-06-02 04:00:00 16.2 11 Sur 17 Sur 0 -- -- 92
2019-06-02 03:00:00 16.6 9 Sur 13 Sur 0 -- -- 90
2019-06-02 02:00:00 17.3 6 Sur 10 Sur 0 -- -- 86
2019-06-02 01:00:00 18.1 4 Sur 10 Sur 0 -- -- 82
2019-06-02 00:00:00 19.5 6 Sur 13 Oeste 0 -- -- 73
2019-06-01 23:00:00 20.1 6 Oeste 20 Oeste 0 -- -- 72
2019-06-01 22:00:00 20.2 11 Oeste 26 Noroeste 0 -- -- 80
2019-06-01 21:00:00 25.2 8 Noroeste 14 Noroeste 0 -- -- 56
2019-06-01 20:00:00 25.8 5 Noroeste 9 Norte 0 -- -- 52
2019-06-01 19:00:00 26.6 5 Noroeste 21 Noroeste 0 -- -- 52
2019-06-01 18:00:00 27.3 10 Noroeste 23 Este 0 -- -- 47
2019-06-01 17:00:00 29.5 16 Este 29 Este 0 -- -- 42
2019-06-01 16:00:00 29.1 14 Nordeste 26 Nordeste 0 -- -- 44
2019-06-01 15:00:00 28.6 11 Norte 18 Nordeste 0 -- -- 47
2019-06-01 14:00:00 27.3 0 Calma 21 Norte 0 -- -- 47
2019-06-01 13:00:00 31.3 15 Este 29 Norte 0 -- -- 38
2019-06-01 12:00:00 29.7 17 Este 35 Norte 0 -- -- 40
2019-06-01 11:00:00 28.2 17 Este 43 Norte 0 -- -- 42
2019-06-01 10:00:00 26.4 15 Sur 33 Sur 0 -- -- 46
2019-06-01 09:00:00 22.8 14 Sur 27 Sudeste 0 -- -- 57
2019-06-01 08:00:00 17.7 0 Calma 16 Sudoeste 0 -- -- 86
2019-06-01 07:00:00 15.6 6 Sur 14 Sur 0 -- -- 95
2019-06-01 06:00:00 15.5 3 Sur 12 Sur 0 -- -- 95
2019-06-01 05:00:00 15.9 4 Sur 15 Sur 0 -- -- 95
2019-06-01 04:00:00 16.1 12 Sur 15 Sur 0 -- -- 95
2019-06-01 03:00:00 16.1 11 Sur 16 Sur 0 -- -- 95
2019-06-01 02:00:00 16.2 13 Sur 17 Sur 0 -- -- 94
2019-06-01 01:00:00 16.3 10 Sur 15 Sur 0 -- -- 93
2019-06-01 00:00:00 16.8 9 Sur 13 Sur 0 -- -- 89
2019-05-31 23:00:00 17.8 0 Calma 8 Sur 0 -- -- 82
2019-05-31 22:00:00 19.8 0 Calma 9 Noroeste 0 -- -- 73
2019-05-31 21:00:00 21.7 4 Noroeste 13 Noroeste 0 -- -- 71
2019-05-31 20:00:00 23.1 9 Norte 13 Nordeste 0 -- -- 68
2019-05-31 19:00:00 22.5 7 Norte 13 Norte 0 -- -- 69
2019-05-31 18:00:00 22.8 7 Norte 16 Norte 0 -- -- 70
2019-05-31 17:00:00 24 9 Noroeste 12 Noroeste 0 -- -- 71
2019-05-31 16:00:00 23.4 9 Noroeste 14 Noroeste 0 -- -- 72
2019-05-31 15:00:00 22.3 10 Noroeste 18 Noroeste 0 -- -- 72
2019-05-31 14:00:00 21 9 Noroeste 18 Noroeste 0 -- -- 76
2019-05-31 13:00:00 20.4 13 Norte 18 Nordeste 0 -- -- 78
2019-05-31 12:00:00 20 11 Nordeste 17 Nordeste 0 -- -- 80
2019-05-31 11:00:00 18.7 9 Norte 28 Oeste 0 -- -- 82
2019-05-31 10:00:00 18.4 5 Noroeste 7 Noroeste 0 -- -- 86
2019-05-31 09:00:00 16.1 0 Calma 10 Sur 0 -- -- 97
2019-05-31 08:00:00 13.9 7 Sur 12 Sur 0 -- -- 97
2019-05-31 07:00:00 13 9 Sur 13 Sur 0 -- -- 97
2019-05-31 06:00:00 13.2 10 Sur 14 Sur 0 -- -- 97
2019-05-31 05:00:00 13.4 11 Sur 13 Sur 0 -- -- 96
2019-05-31 04:00:00 13.5 10 Sur 13 Sudoeste 0 -- -- 96
2019-05-31 03:00:00 13.9 10 Sur 14 Sur 0 -- -- 96
2019-05-31 02:00:00 14.2 9 Sur 12 Sur 0 -- -- 95
2019-05-31 01:00:00 14.8 4 Sur 10 Sur 0 -- -- 93
2019-05-31 00:00:00 15.5 4 Sudoeste 10 Sudoeste 0 -- -- 91
2019-05-30 23:00:00 16.3 5 Sur 8 Sur 0 -- -- 86
2019-05-30 22:00:00 17.7 0 Calma 10 Este 0 -- -- 77
2019-05-30 21:00:00 19.8 0 Calma 11 Nordeste 0 -- -- 72
2019-05-30 20:00:00 20.4 8 Nordeste 10 Nordeste 0 -- -- 71
2019-05-30 19:00:00 21 6 Norte 11 Norte 0 -- -- 70
2019-05-30 18:00:00 20.1 9 Nordeste 15 Nordeste 0 -- -- 72
2019-05-30 17:00:00 19.8 13 Nordeste 17 Norte 0 -- -- 72
2019-05-30 16:00:00 20.4 6 Norte 15 Nordeste 0 -- -- 72
2019-05-30 15:00:00 19 10 Nordeste 20 Nordeste 0 -- -- 71
2019-05-30 14:00:00 19.3 15 Nordeste 26 Nordeste 0 -- -- 66
2019-05-30 13:00:00 18.4 18 Nordeste 24 Nordeste 0 -- -- 67
2019-05-30 12:00:00 18.9 10 Nordeste 17 Nordeste 0 -- -- 66
2019-05-30 11:00:00 17.3 11 Nordeste 16 Nordeste 0 -- -- 70
2019-05-30 10:00:00 17.2 0 Calma 8 Sur 0 -- -- 74
2019-05-30 09:00:00 13.4 0 Calma 14 Sur 0 -- -- 92
2019-05-30 08:00:00 10.6 9 Sur 15 Sur 0 -- -- 95
2019-05-30 07:00:00 9.7 12 Sur 17 Sur 0 -- -- 96
2019-05-30 06:00:00 9.9 9 Sur 14 Sur 0 -- -- 95
2019-05-30 05:00:00 10 12 Sur 16 Sur 0 -- -- 95
2019-05-30 04:00:00 10.3 11 Sur 16 Sur 0 -- -- 95
2019-05-30 03:00:00 10.6 10 Sur 14 Sur 0 -- -- 94
2019-05-30 02:00:00 11.1 8 Sur 13 Sur 0 -- -- 92
2019-05-30 01:00:00 11.8 7 Sur 12 Sur 0 -- -- 92
2019-05-30 00:00:00 12.7 3 Sur 10 Sur 0 -- -- 89
2019-05-29 23:00:00 13.8 0 Calma 6 Sur 0 -- -- 82
2019-05-29 22:00:00 15.5 0 Calma 7 Sur 0 -- -- 73
2019-05-29 21:00:00 17.7 4 Nordeste 13 Nordeste 0 -- -- 69
2019-05-29 20:00:00 18.8 5 Nordeste 12 Nordeste 0 -- -- 66
2019-05-29 19:00:00 19.4 6 Nordeste 15 Norte 0 -- -- 65
2019-05-29 18:00:00 18.9 10 Norte 16 Norte 0 -- -- 64
2019-05-29 17:00:00 19.5 8 Norte 15 Noroeste 0 -- -- 66
2019-05-29 16:00:00 19.4 9 Norte 14 Noroeste 0 -- -- 66
2019-05-29 15:00:00 19.8 8 Noroeste 17 Noroeste 0 -- -- 68
2019-05-29 14:00:00 20.3 12 Noroeste 16 Noroeste 0 -- -- 65
2019-05-29 13:00:00 20.1 11 Noroeste 17 Noroeste 0 -- -- 66
2019-05-29 12:00:00 19.8 12 Noroeste 17 Noroeste 0 -- -- 67
2019-05-29 11:00:00 18.5 13 Noroeste 21 Noroeste 0 -- -- 70
2019-05-29 10:00:00 16.8 16 Noroeste 26 Noroeste 0 -- -- 75
2019-05-29 09:00:00 15.4 18 Noroeste 28 Noroeste 0 -- -- 79
2019-05-29 08:00:00 14.1 22 Noroeste 31 Noroeste 0 -- -- 89
2019-05-29 07:00:00 13.6 13 Noroeste 29 Noroeste 0 -- -- 94
2019-05-29 06:00:00 13.6 15 Noroeste 35 Noroeste 0.1 -- -- 94
2019-05-29 05:00:00 13.9 14 Noroeste 32 Oeste 1 -- -- 86
2019-05-29 04:00:00 14.3 12 Noroeste 40 Noroeste 0 -- -- 80
2019-05-29 03:00:00 14.9 25 Noroeste 37 Noroeste 0 -- -- 82
2019-05-29 02:00:00 14.9 24 Noroeste 38 Noroeste 0 -- -- 83
2019-05-29 01:00:00 14.8 25 Noroeste 44 Noroeste 0 -- -- 82
2019-05-29 00:00:00 14.9 26 Noroeste 42 Noroeste 0 -- -- 81
2019-05-28 23:00:00 14.9 27 Noroeste 45 Noroeste 0 -- -- 81
2019-05-28 22:00:00 14.9 31 Noroeste 42 Noroeste 0 -- -- 81
2019-05-28 21:00:00 14.9 30 Noroeste 47 Noroeste 0 -- -- 80
2019-05-28 20:00:00 15.7 35 Noroeste 50 Noroeste 0.5 -- -- 79
2019-05-28 19:00:00 15.7 28 Noroeste 54 Noroeste 0.1 -- -- 75
2019-05-28 18:00:00 17.7 30 Noroeste 44 Noroeste 0 -- -- 69
2019-05-28 17:00:00 18.3 30 Noroeste 45 Noroeste 0 -- -- 68
2019-05-28 16:00:00 18.1 35 Noroeste 48 Noroeste 0 -- -- 70
2019-05-28 15:00:00 16.7 30 Noroeste 40 Noroeste 0 -- -- 78
2019-05-28 14:00:00 16.3 20 Noroeste 55 Noroeste 0.5 -- -- 85
2019-05-28 13:00:00 16.3 35 Noroeste 61 Noroeste 0 -- -- 73
2019-05-28 12:00:00 17.8 26 Noroeste 35 Noroeste 0 -- -- 72
2019-05-28 11:00:00 16 17 Noroeste 33 Noroeste 0 -- -- 76
2019-05-28 10:00:00 14.4 16 Noroeste 30 Noroeste 0 -- -- 83
2019-05-28 09:00:00 14.1 5 Noroeste 44 Noroeste 0.1 -- -- 86
2019-05-28 08:00:00 14 12 Noroeste 24 Noroeste 0 -- -- 80
2019-05-28 07:00:00 14 9 Oeste 24 Noroeste 0 -- -- 81
2019-05-28 06:00:00 13.8 9 Oeste 21 Oeste 0 -- -- 81
2019-05-28 05:00:00 13.8 4 Oeste 23 Noroeste 0 -- -- 80
2019-05-28 04:00:00 13.9 7 Oeste 24 Oeste 0 -- -- 81
2019-05-28 03:00:00 13.9 9 Oeste 22 Noroeste 0 -- -- 81
2019-05-28 02:00:00 14 12 Noroeste 27 Noroeste 0 -- -- 82
2019-05-28 01:00:00 13.9 4 Oeste 20 Noroeste 0 -- -- 86
2019-05-28 00:00:00 14.5 10 Noroeste 25 Noroeste 0 -- -- 88